Time;durP1;ratioP1;P1;durP2;ratioP2;P2;SDS_P1;SDS_P2;PMS_P1;PMS_P2;Temp;Humidity;BMP_temperature;BMP_pressure;BME280_temperature;BME280_humidity;BME280_pressure;Samples;Min_cycle;Max_cycle;Signal;HPM_P1;HPM_P2
2023/10/12 00:00:42;;;;;;;1999.90;999.90;;;16.60;99.90;;;;;;5114576;28;20548;-67
2023/10/12 00:03:12;;;;;;;1999.90;999.90;;;16.50;99.90;;;;;;5110655;28;20031;-67
2023/10/12 00:05:44;;;;;;;1999.90;999.90;;;16.50;99.90;;;;;;5108964;28;20024;-67
2023/10/12 00:08:10;;;;;;;1999.90;999.90;;;16.50;99.90;;;;;;5106655;28;20024;-80
2023/10/12 00:10:44;;;;;;;1999.90;999.90;;;16.50;99.90;;;;;;5096924;28;20327;-67
2023/10/12 00:13:13;;;;;;;1999.90;999.90;;;16.50;99.90;;;;;;5106280;28;20312;-67
2023/10/12 00:15:45;;;;;;;1999.90;999.90;;;16.50;99.90;;;;;;5112040;28;20031;-80
2023/10/12 00:18:14;;;;;;;1999.90;999.90;;;16.40;99.90;;;;;;5115927;28;20024;-67
2023/10/12 00:20:43;;;;;;;1999.90;999.90;;;16.40;99.90;;;;;;5090385;28;20045;-67
2023/10/12 00:23:09;;;;;;;1999.90;999.90;;;16.40;99.90;;;;;;5093700;28;20027;-83
2023/10/12 00:25:46;;;;;;;1999.90;999.90;;;16.30;99.90;;;;;;5114183;28;20020;-67
2023/10/12 00:28:17;;;;;;;1999.90;999.90;;;16.30;99.90;;;;;;5114690;28;20670;-66
2023/10/12 00:30:46;;;;;;;1999.90;999.90;;;16.30;99.90;;;;;;5113073;28;20020;-67
2023/10/12 00:33:12;;;;;;;1999.90;999.90;;;16.30;99.90;;;;;;5102617;28;20024;-66
2023/10/12 00:35:38;;;;;;;1999.90;999.90;;;16.20;99.90;;;;;;5116392;28;20026;-66
2023/10/12 00:38:23;;;;;;;1999.90;999.90;;;16.10;99.90;;;;;;5111665;28;20039;-83
2023/10/12 00:40:57;;;;;;;1999.90;999.90;;;16.10;99.90;;;;;;5110101;28;20083;-66
2023/10/12 00:43:28;;;;;;;1999.90;999.90;;;15.90;99.90;;;;;;5111983;28;20023;-83
2023/10/12 00:45:53;;;;;;;1999.90;999.90;;;15.80;99.90;;;;;;5104587;28;20088;-66
2023/10/12 00:48:21;;;;;;;1999.90;999.90;;;15.70;99.90;;;;;;5107053;28;20137;-66
2023/10/12 00:50:49;;;;;;;1999.90;999.90;;;15.60;99.90;;;;;;5101592;28;20040;-66
2023/10/12 00:55:46;;;;;;;1999.90;999.90;;;15.50;99.90;;;;;;5108846;28;20024;-66
2023/10/12 00:58:14;;;;;;;1999.90;999.90;;;15.40;99.90;;;;;;5111546;28;20035;-66
2023/10/12 01:00:51;;;;;;;1999.90;999.90;;;15.30;99.90;;;;;;5081298;28;20113;-66
2023/10/12 01:03:35;;;;;;;1999.90;999.90;;;15.30;99.90;;;;;;5102601;28;20024;-66
2023/10/12 01:08:46;;;;;;;1999.90;999.90;;;15.30;99.90;;;;;;5099839;28;20113;-66
2023/10/12 01:11:53;;;;;;;1999.90;999.90;;;15.30;99.90;;;;;;5112178;28;20031;-86
2023/10/12 01:14:11;;;;;;;1999.90;999.90;;;15.20;99.90;;;;;;5104847;27;20044;-66
2023/10/12 01:19:33;;;;;;;1999.90;999.90;;;15.20;99.90;;;;;;5082682;28;20071;-66
2023/10/12 01:22:42;;;;;;;1999.90;999.90;;;15.20;99.90;;;;;;5114654;28;20026;-67
2023/10/12 01:27:20;;;;;;;1999.90;999.90;;;15.20;99.90;;;;;;5102132;28;20033;-67
2023/10/12 01:29:46;;;;;;;1999.90;999.90;;;15.20;99.90;;;;;;5107807;28;20055;-66
2023/10/12 01:34:38;;;;;;;1999.90;999.90;;;15.20;99.90;;;;;;5104439;28;20031;-81
2023/10/12 01:42:49;;;;;;;1999.90;999.90;;;15.20;99.90;;;;;;5097485;28;20422;-66
2023/10/12 01:48:04;;;;;;;1999.90;999.90;;;15.20;99.90;;;;;;5107694;27;20026;-66
2023/10/12 01:50:33;;;;;;;1999.90;999.90;;;15.20;99.90;;;;;;5107332;28;20075;-67
2023/10/12 01:53:07;;;;;;;1999.90;999.90;;;15.20;99.90;;;;;;5103291;28;20039;-67
2023/10/12 01:55:33;;;;;;;1999.90;999.90;;;15.10;99.90;;;;;;5103617;28;20081;-67
2023/10/12 01:57:59;;;;;;;1999.90;999.90;;;15.10;99.90;;;;;;5103978;28;20035;-85
2023/10/12 02:00:39;;;;;;;1999.90;999.90;;;15.10;99.90;;;;;;5100085;28;20036;-67
2023/10/12 02:03:42;;;;;;;1999.90;999.90;;;15.10;99.90;;;;;;5076896;28;20078;-66
2023/10/12 02:06:01;;;;;;;1999.90;999.90;;;15.10;99.90;;;;;;5096115;28;20036;-66
2023/10/12 02:08:32;;;;;;;1999.90;999.90;;;15.00;99.90;;;;;;5098405;28;20476;-67
2023/10/12 02:13:51;;;;;;;1999.90;999.90;;;15.00;99.90;;;;;;5070558;28;20434;-67
2023/10/12 02:16:30;;;;;;;1999.90;999.90;;;14.90;99.90;;;;;;5097944;28;20431;-67
2023/10/12 02:18:56;;;;;;;1999.90;999.90;;;14.90;99.90;;;;;;5104633;28;20032;-67
2023/10/12 02:21:22;;;;;;;1999.90;999.90;;;14.90;99.90;;;;;;5100386;28;20020;-66
2023/10/12 02:31:40;;;;;;;1999.90;999.90;;;14.80;99.90;;;;;;5115512;28;20039;-66
2023/10/12 02:34:16;;;;;;;1999.90;999.90;;;14.60;99.90;;;;;;5086567;28;20028;-67
2023/10/12 02:37:01;;;;;;;;;;;14.60;99.90;;;;;;5100741;28;20028;-67
2023/10/12 02:39:31;;;;;;;1999.90;999.90;;;14.50;99.90;;;;;;5099308;28;20256;-66
2023/10/12 02:44:51;;;;;;;1999.90;999.90;;;14.40;99.90;;;;;;5094364;28;20708;-67
2023/10/12 02:47:23;;;;;;;1999.90;999.90;;;14.20;99.90;;;;;;5101987;28;20020;-67
2023/10/12 02:52:37;;;;;;;1999.90;999.90;;;14.10;99.90;;;;;;5100975;28;20055;-67
2023/10/12 03:00:54;;;;;;;1999.90;999.90;;;14.10;99.90;;;;;;5025579;28;20047;-67
2023/10/12 03:03:33;;;;;;;1999.90;999.90;;;14.10;99.90;;;;;;5009767;28;20041;-67
2023/10/12 03:06:00;;;;;;;1999.90;999.90;;;14.10;99.90;;;;;;5038497;28;20037;-67
2023/10/12 03:11:13;;;;;;;1999.90;999.90;;;14.20;99.90;;;;;;4989561;28;20038;-67
2023/10/12 03:13:42;;;;;;;1999.90;999.90;;;14.20;99.90;;;;;;5030495;28;20044;-67
2023/10/12 03:16:13;;;;;;;1999.90;999.90;;;14.10;99.90;;;;;;5032330;28;20036;-67
2023/10/12 03:18:40;;;;;;;1999.90;999.90;;;14.10;99.90;;;;;;5030218;28;20091;-67
2023/10/12 03:21:11;;;;;;;;;;;14.10;99.90;;;;;;5031805;28;20071;-67
2023/10/12 03:23:41;;;;;;;1999.90;999.90;;;14.10;99.90;;;;;;5031058;28;19908;-67
2023/10/12 03:26:25;;;;;;;1999.90;999.90;;;14.00;99.90;;;;;;5031953;28;20428;-67
2023/10/12 03:31:58;;;;;;;1999.90;999.90;;;14.00;99.90;;;;;;5028181;28;20037;-67
2023/10/12 03:36:58;;;;;;;1999.90;999.90;;;14.00;99.90;;;;;;5073255;28;20043;-67
2023/10/12 03:52:21;;;;;;;1999.90;999.90;;;13.90;99.90;;;;;;5098751;28;20034;-67
2023/10/12 04:02:53;;;;;;;1999.90;999.90;;;13.80;99.90;;;;;;5102197;28;20547;-67
2023/10/12 04:08:01;;;;;;;1999.90;999.90;;;13.90;99.90;;;;;;5103261;28;20032;-67
2023/10/12 04:18:32;;;;;;;1999.90;999.90;;;14.00;99.90;;;;;;5111583;28;20119;-66
2023/10/12 04:20:59;;;;;;;1999.90;999.90;;;13.90;99.90;;;;;;5114846;28;20038;-67
2023/10/12 04:27:07;;;;;;;1999.90;999.90;;;13.90;99.90;;;;;;5106822;28;20355;-67
2023/10/12 04:28:58;;;;;;;1999.90;999.90;;;13.90;99.90;;;;;;5091618;28;20040;-67
2023/10/12 04:32:15;;;;;;;1999.90;999.90;;;13.80;99.90;;;;;;5113008;28;20042;-67
2023/10/12 04:34:16;;;;;;;1999.90;999.90;;;13.80;99.90;;;;;;5094351;28;20084;-67
2023/10/12 04:36:44;;;;;;;1999.90;999.90;;;13.90;99.90;;;;;;5102110;28;20311;-67
2023/10/12 04:39:26;;;;;;;1999.90;999.90;;;14.00;99.90;;;;;;5106628;28;20035;-80
2023/10/12 04:47:04;;;;;;;1999.90;999.90;;;14.00;99.90;;;;;;5106930;28;20020;-67
2023/10/12 04:57:16;;;;;;;1999.90;999.90;;;14.10;99.90;;;;;;5105227;27;20019;-67
2023/10/12 05:02:33;;;;;;;1999.90;999.90;;;14.10;99.90;;;;;;5105007;28;20266;-67
2023/10/12 05:07:28;;;;;;;1999.90;999.90;;;14.10;99.90;;;;;;5102456;28;20414;-67
2023/10/12 05:09:54;;;;;;;1999.90;999.90;;;14.10;99.90;;;;;;5103359;28;20039;-67
2023/10/12 05:12:28;;;;;;;1999.90;999.90;;;14.10;99.90;;;;;;5103977;28;20319;-81
2023/10/12 05:14:59;;;;;;;1999.90;999.90;;;14.10;99.90;;;;;;5087604;28;20373;-67
2023/10/12 05:17:25;;;;;;;1999.90;999.90;;;14.10;99.90;;;;;;5106917;28;20048;-67
2023/10/12 05:19:53;;;;;;;1999.90;999.90;;;14.10;99.90;;;;;;5111833;28;20020;-82
2023/10/12 05:22:20;;;;;;;1999.90;999.90;;;14.10;99.90;;;;;;5104138;28;20024;-67
2023/10/12 05:24:49;;;;;;;1999.90;999.90;;;14.10;99.90;;;;;;5109249;28;20031;-67
2023/10/12 05:27:23;;;;;;;1999.90;999.90;;;14.10;99.90;;;;;;5102398;28;20031;-78
2023/10/12 05:29:52;;;;;;;1999.90;999.90;;;14.10;99.90;;;;;;5109430;28;20039;-67
2023/10/12 05:32:18;;;;;;;1999.90;999.90;;;14.10;99.90;;;;;;5100210;28;20494;-67
2023/10/12 05:34:45;;;;;;;1999.90;999.90;;;14.00;99.90;;;;;;5103530;28;20032;-80
2023/10/12 05:39:55;;;;;;;1999.90;999.90;;;14.00;99.90;;;;;;5096366;28;20426;-67
2023/10/12 05:42:24;;;;;;;1999.90;999.90;;;14.00;99.90;;;;;;5081839;28;20020;-67
2023/10/12 05:44:51;;;;;;;1999.90;999.90;;;14.00;99.90;;;;;;5084812;28;20030;-67
2023/10/12 05:47:18;;;;;;;1999.90;999.90;;;14.00;99.90;;;;;;5103046;28;20027;-67
2023/10/12 05:49:50;;;;;;;;;;;13.90;99.90;;;;;;5099417;28;20028;-81
2023/10/12 05:52:17;;;;;;;1999.90;999.90;;;13.90;99.90;;;;;;5094685;28;19912;-67
2023/10/12 05:54:43;;;;;;;1999.90;999.90;;;13.90;99.90;;;;;;5081071;28;20020;-67
2023/10/12 05:57:25;;;;;;;1999.90;999.90;;;13.80;99.90;;;;;;5078315;28;20099;-81
2023/10/12 05:59:50;;;;;;;1999.90;999.90;;;13.90;99.90;;;;;;5097853;28;20028;-67
2023/10/12 06:02:21;;;;;;;1999.90;999.90;;;13.80;99.90;;;;;;5101488;27;20027;-67
2023/10/12 06:04:47;;;;;;;1999.90;999.90;;;13.90;99.90;;;;;;5107829;28;20020;-67
2023/10/12 06:07:14;;;;;;;1999.90;999.90;;;13.90;99.90;;;;;;5106363;28;20038;-67
2023/10/12 06:09:40;;;;;;;1999.90;999.90;;;13.90;99.90;;;;;;5110364;28;20028;-67
2023/10/12 06:12:07;;;;;;;1999.90;999.90;;;13.90;99.90;;;;;;5114611;28;20039;-74
2023/10/12 06:14:34;;;;;;;1999.90;999.90;;;13.80;99.90;;;;;;5110179;28;20027;-67
2023/10/12 06:17:02;;;;;;;1999.90;999.90;;;13.60;99.90;;;;;;5098673;28;20335;-67
2023/10/12 06:19:34;;;;;;;1999.90;999.90;;;13.50;99.90;;;;;;5115131;28;20640;-66
2023/10/12 06:22:19;;;;;;;1999.90;999.90;;;13.50;99.90;;;;;;5110069;28;20054;-67
2023/10/12 06:24:49;;;;;;;1999.90;999.90;;;13.40;99.90;;;;;;5110711;28;20319;-67
2023/10/12 06:29:48;;;;;;;1999.90;999.90;;;13.40;99.90;;;;;;5098479;28;20073;-67
2023/10/12 06:32:19;;;;;;;;;;;13.40;99.90;;;;;;5103451;28;20032;-67
2023/10/12 06:35:12;;;;;;;1999.90;999.90;;;13.40;99.90;;;;;;5100471;28;19919;-67
2023/10/12 06:45:49;;;;;;;1999.90;999.90;;;13.30;99.90;;;;;;5098292;28;20019;-67
2023/10/12 06:51:03;;;;;;;1999.90;999.90;;;13.30;99.90;;;;;;5105388;28;20139;-67
2023/10/12 06:53:34;;;;;;;1999.90;999.90;;;13.40;99.90;;;;;;5107719;28;20490;-78
2023/10/12 06:58:44;;;;;;;1999.90;999.90;;;13.40;99.90;;;;;;5108225;28;20023;-78
2023/10/12 07:01:19;;;;;;;1999.90;999.90;;;13.40;99.90;;;;;;5104589;28;20024;-73
2023/10/12 07:03:48;;;;;;;1999.90;999.90;;;13.40;99.90;;;;;;5097986;28;20047;-77
2023/10/12 07:06:15;;;;;;;1999.90;999.90;;;13.40;99.90;;;;;;5100681;28;20327;-78
2023/10/12 07:08:42;;;;;;;1999.90;999.90;;;13.50;99.90;;;;;;5105022;28;20020;-79
2023/10/12 07:11:11;;;;;;;1999.90;999.90;;;13.50;99.90;;;;;;5099962;28;20020;-77
2023/10/12 07:13:41;;;;;;;1999.90;999.90;;;13.50;99.90;;;;;;5078816;28;20053;-67
2023/10/12 07:16:21;;;;;;;1999.90;999.90;;;13.50;99.90;;;;;;5084235;28;20028;-76
2023/10/12 07:18:49;;;;;;;1999.90;999.90;;;13.50;99.90;;;;;;5080664;28;20055;-77
2023/10/12 07:21:21;;;;;;;1999.90;999.90;;;13.50;99.90;;;;;;5107156;28;20031;-71
2023/10/12 07:23:56;;;;;;;1999.90;999.90;;;13.50;99.90;;;;;;5104666;28;20058;-67
2023/10/12 07:26:30;;;;;;;1999.90;999.90;;;13.50;99.90;;;;;;5086567;28;20015;-78
2023/10/12 07:28:57;;;;;;;1999.90;999.90;;;13.60;99.90;;;;;;5109371;27;20055;-73
2023/10/12 07:33:59;;;;;;;1999.90;999.90;;;13.70;99.90;;;;;;5116139;27;20035;-79
2023/10/12 07:41:55;;;;;;;1999.90;999.90;;;13.60;99.90;;;;;;5106496;27;20088;-67
2023/10/12 07:44:25;;;;;;;1999.90;999.90;;;13.50;99.90;;;;;;5087122;28;20406;-67
2023/10/12 07:46:51;;;;;;;1999.90;999.90;;;13.50;99.90;;;;;;5106739;27;20058;-67
2023/10/12 07:52:38;;;;;;;1999.90;999.90;;;13.50;99.90;;;;;;5100637;27;20054;-67
2023/10/12 07:54:47;;;;;;;1999.90;999.90;;;13.50;99.90;;;;;;5109148;27;20071;-68
2023/10/12 07:57:17;;;;;;;1999.90;999.90;;;13.50;99.90;;;;;;5096117;28;20510;-68
2023/10/12 07:59:59;;;;;;;1999.90;999.90;;;13.50;99.90;;;;;;5100159;28;20024;-67
2023/10/12 08:08:08;;;;;;;1999.90;999.90;;;13.60;99.90;;;;;;5100377;27;20016;-68
2023/10/12 08:13:16;;;;;;;1999.90;999.90;;;13.50;99.90;;;;;;5107496;27;20031;-68
2023/10/12 08:24:02;;;;;;;1999.90;999.90;;;13.70;99.90;;;;;;5101373;27;20047;-67
2023/10/12 08:27:05;;;;;;;1999.90;999.90;;;13.70;99.90;;;;;;5088408;28;20023;-67
2023/10/12 08:42:39;;;;;;;1999.90;999.90;;;13.80;99.90;;;;;;5103140;28;20115;-79
2023/10/12 08:45:09;;;;;;;1999.90;999.90;;;13.80;99.90;;;;;;5107695;28;20029;-67
2023/10/12 08:50:25;;;;;;;1999.90;999.90;;;13.90;99.90;;;;;;5108665;28;20346;-79
2023/10/12 08:52:54;;;;;;;1999.90;999.90;;;14.10;99.90;;;;;;5106071;28;20039;-67
2023/10/12 08:55:24;;;;;;;1999.90;999.90;;;14.10;99.90;;;;;;5104517;28;20081;-67
2023/10/12 08:58:39;;;;;;;1999.90;999.90;;;14.10;99.90;;;;;;5102058;27;20154;-78
2023/10/12 09:01:07;;;;;;;1999.90;999.90;;;14.10;99.90;;;;;;5102954;28;20312;-67
2023/10/12 09:03:46;;;;;;;1999.90;999.90;;;14.10;99.90;;;;;;5103985;28;20100;-67
2023/10/12 09:06:29;;;;;;;1999.90;999.90;;;14.20;99.90;;;;;;5110051;28;20034;-67
2023/10/12 09:08:56;;;;;;;1999.90;999.90;;;14.30;99.90;;;;;;5099587;28;20124;-67
2023/10/12 09:11:33;;;;;;;;;;;14.30;99.90;;;;;;5099098;28;20390;-78
2023/10/12 09:14:00;;;;;;;1999.90;999.90;;;14.30;99.90;;;;;;5104578;28;19908;-66
2023/10/12 09:16:27;;;;;;;1999.90;999.90;;;14.30;99.90;;;;;;5102391;28;20036;-66
2023/10/12 09:19:00;;;;;;;1999.90;999.90;;;14.30;99.90;;;;;;5095478;28;20085;-67
2023/10/12 09:21:38;;;;;;;1999.90;999.90;;;14.30;99.90;;;;;;5096215;28;20035;-68
2023/10/12 09:24:21;;;;;;;1999.90;999.90;;;14.30;99.90;;;;;;5104875;28;20089;-67
2023/10/12 09:26:51;;;;;;;1999.90;999.90;;;14.30;99.90;;;;;;5099733;28;20020;-67
2023/10/12 09:29:21;;;;;;;1999.90;999.90;;;14.30;99.90;;;;;;5079693;28;20481;-66
2023/10/12 09:31:57;;;;;;;1999.90;999.90;;;14.30;99.90;;;;;;5110493;28;20032;-67
2023/10/12 09:34:42;;;;;;;1999.90;999.90;;;14.30;99.90;;;;;;5096284;28;20024;-66
2023/10/12 09:37:08;;;;;;;1999.90;999.90;;;14.40;99.90;;;;;;5096843;28;20055;-66
2023/10/12 09:39:35;;;;;;;1999.90;999.90;;;14.40;99.90;;;;;;5095922;28;20036;-74
2023/10/12 09:42:09;;;;;;;1999.90;999.90;;;14.50;99.90;;;;;;5095556;28;20426;-67
2023/10/12 09:44:39;;;;;;;1999.90;999.90;;;14.50;99.90;;;;;;5098336;28;20031;-70
2023/10/12 09:47:11;;;;;;;1999.90;999.90;;;14.60;99.90;;;;;;5077121;28;20300;-78
2023/10/12 09:49:44;;;;;;;1999.90;999.90;;;14.60;99.90;;;;;;5098899;28;20107;-67
2023/10/12 09:52:17;;;;;;;1999.90;999.90;;;14.60;99.90;;;;;;5102791;28;20024;-67
2023/10/12 09:54:53;;;;;;;1999.90;999.90;;;14.70;99.90;;;;;;5091663;28;20027;-67
2023/10/12 09:57:23;;;;;;;1999.90;999.90;;;14.70;99.90;;;;;;5109174;28;20330;-67
2023/10/12 09:59:53;;;;;;;1999.90;999.90;;;14.70;99.90;;;;;;5085521;28;20084;-67
2023/10/12 10:02:29;;;;;;;1999.90;999.90;;;14.70;99.90;;;;;;5096511;28;20030;-80
2023/10/12 10:05:11;;;;;;;1999.90;999.90;;;14.70;99.90;;;;;;5107784;28;20419;-83
2023/10/12 10:07:42;;;;;;;1999.90;999.90;;;14.60;99.90;;;;;;5102029;28;20038;-67
2023/10/12 10:10:30;;;;;;;1999.90;999.90;;;14.60;99.90;;;;;;5105772;28;20074;-67
2023/10/12 10:13:00;;;;;;;1999.90;999.90;;;14.60;99.90;;;;;;5090494;28;20031;-67
2023/10/12 10:15:43;;;;;;;1999.90;999.90;;;14.60;99.90;;;;;;5095894;28;20111;-67
2023/10/12 10:18:16;;;;;;;1999.90;999.90;;;14.50;99.90;;;;;;5109911;28;20032;-67
2023/10/12 10:20:53;;;;;;;1999.90;999.90;;;14.50;99.90;;;;;;5104530;28;20028;-67
2023/10/12 10:23:19;;;;;;;1999.90;999.90;;;14.50;99.90;;;;;;5095720;28;20419;-67
2023/10/12 10:25:56;;;;;;;1999.90;999.90;;;14.50;99.90;;;;;;5105566;28;20106;-74
2023/10/12 10:28:27;;;;;;;1999.90;999.90;;;14.50;99.90;;;;;;5102638;28;20365;-67
2023/10/12 10:30:56;;;;;;;1999.90;999.90;;;14.50;99.90;;;;;;5106126;28;20034;-84
2023/10/12 10:33:26;;;;;;;1999.90;999.90;;;14.50;99.90;;;;;;5099022;28;20024;-67
2023/10/12 10:36:17;;;;;;;1999.90;999.90;;;14.50;99.90;;;;;;5101730;28;20052;-67
2023/10/12 10:39:08;;;;;;;1999.90;999.90;;;14.50;99.90;;;;;;5095984;28;20028;-66
2023/10/12 10:41:46;;;;;;;1999.90;999.90;;;14.50;99.90;;;;;;5093996;28;20036;-66
2023/10/12 10:44:21;;;;;;;1999.90;999.90;;;14.50;99.90;;;;;;5095666;28;20020;-78
2023/10/12 10:46:54;;;;;;;1999.90;999.90;;;14.50;99.90;;;;;;5099126;28;20031;-67
2023/10/12 10:49:21;;;;;;;1999.90;999.90;;;14.50;99.90;;;;;;5096071;28;20036;-67
2023/10/12 10:52:13;;;;;;;1999.90;999.90;;;14.50;99.90;;;;;;5088032;28;20131;-67
2023/10/12 10:54:51;;;;;;;1999.90;999.90;;;14.50;99.90;;;;;;5109538;28;20031;-66
2023/10/12 10:57:24;;;;;;;1999.90;999.90;;;14.50;99.90;;;;;;5087041;28;20046;-67
2023/10/12 10:59:54;;;;;;;1999.90;999.90;;;14.50;99.90;;;;;;5095215;28;20023;-67
2023/10/12 11:02:21;;;;;;;1999.90;999.90;;;14.50;99.90;;;;;;5098731;28;20073;-67
2023/10/12 11:04:46;;;;;;;;;;;14.50;99.90;;;;;;5105283;28;20024;-66
2023/10/12 11:07:17;;;;;;;1999.90;999.90;;;14.40;99.90;;;;;;5103019;28;19908;-67
2023/10/12 11:12:15;;;;;;;1999.90;999.90;;;14.50;99.90;;;;;;5104932;28;20028;-67
2023/10/12 11:14:58;;;;;;;1999.90;999.90;;;14.50;99.90;;;;;;5108638;27;20032;-67
2023/10/12 11:17:26;;;;;;;1999.90;999.90;;;14.50;99.90;;;;;;5083407;28;20038;-67
2023/10/12 11:19:52;;;;;;;1999.90;999.90;;;14.50;99.90;;;;;;5104057;28;20107;-68
2023/10/12 11:22:19;;;;;;;1999.90;999.90;;;14.50;99.90;;;;;;5099228;28;20087;-67
2023/10/12 11:24:45;;;;;;;1999.90;999.90;;;14.50;99.90;;;;;;5104682;28;20322;-68
2023/10/12 11:27:12;;;;;;;1999.90;999.90;;;14.50;99.90;;;;;;5098385;28;20028;-67
2023/10/12 11:29:50;;;;;;;1999.90;999.90;;;14.50;99.90;;;;;;5097778;28;20082;-68
2023/10/12 11:32:16;;;;;;;1999.90;999.90;;;14.50;99.90;;;;;;5098920;28;20028;-67
2023/10/12 11:34:46;;;;;;;1999.90;999.90;;;14.50;99.90;;;;;;5101953;28;20062;-67
2023/10/12 11:37:13;;;;;;;1999.90;999.90;;;14.50;99.90;;;;;;5103459;28;20040;-67
2023/10/12 11:39:52;;;;;;;1999.90;999.90;;;14.50;99.90;;;;;;5103024;28;20032;-81
2023/10/12 11:42:18;;;;;;;1999.90;999.90;;;14.40;99.90;;;;;;5098051;28;20103;-67
2023/10/12 11:44:46;;;;;;;1999.90;999.90;;;14.50;99.90;;;;;;5101318;28;20107;-67
2023/10/12 11:47:24;;;;;;;1999.90;999.90;;;14.50;99.90;;;;;;5100704;28;20054;-80
2023/10/12 11:49:58;;;;;;;1999.90;999.90;;;14.40;99.90;;;;;;5100443;28;20127;-68
2023/10/12 11:52:33;;;;;;;1999.90;999.90;;;14.40;99.90;;;;;;5099831;28;20117;-68
2023/10/12 11:55:07;;;;;;;1999.90;999.90;;;14.40;99.90;;;;;;5104331;27;20028;-68
2023/10/12 11:57:33;;;;;;;1999.90;999.90;;;14.40;99.90;;;;;;5081680;28;20038;-68
2023/10/12 12:00:00;;;;;;;1999.90;999.90;;;14.50;99.90;;;;;;5098133;28;20027;-84
2023/10/12 12:02:26;;;;;;;1999.90;999.90;;;14.50;99.90;;;;;;5113515;27;20293;-67
2023/10/12 12:04:52;;;;;;;1999.90;999.90;;;14.50;99.90;;;;;;5113262;27;20030;-66
2023/10/12 12:07:20;;;;;;;1999.90;999.90;;;14.50;99.90;;;;;;5111239;27;20030;-66
2023/10/12 12:09:52;;;;;;;1999.90;999.90;;;14.40;99.90;;;;;;5113258;27;20019;-66
2023/10/12 12:12:18;;;;;;;1999.90;999.90;;;14.40;99.90;;;;;;5117263;27;20024;-67
2023/10/12 12:14:46;;;;;;;1999.90;999.90;;;14.50;99.90;;;;;;5121309;27;20102;-86
2023/10/12 12:17:15;;;;;;;1999.90;999.90;;;14.50;99.90;;;;;;5106107;27;20036;-66
2023/10/12 12:19:41;;;;;;;1999.90;999.90;;;14.50;99.90;;;;;;5100208;27;20016;-66
2023/10/12 12:22:11;;;;;;;1999.90;999.90;;;14.60;99.90;;;;;;5115458;27;20313;-66
2023/10/12 12:24:44;;;;;;;1999.90;999.90;;;14.60;99.90;;;;;;5115429;27;20035;-66
2023/10/12 12:27:59;;;;;;;1999.90;999.90;;;14.60;99.90;;;;;;5116824;27;20406;-67
2023/10/12 12:29:57;;;;;;;1999.90;999.90;;;14.60;99.90;;;;;;5093150;27;20056;-67
2023/10/12 12:32:26;;;;;;;1999.90;999.90;;;14.60;99.90;;;;;;5106871;27;20027;-67
2023/10/12 12:34:54;;;;;;;1999.90;999.90;;;14.70;99.90;;;;;;5108238;27;20068;-67
2023/10/12 12:37:20;;;;;;;1999.90;999.90;;;14.60;99.90;;;;;;5102581;28;20077;-67
2023/10/12 12:40:13;;;;;;;1999.90;999.90;;;14.60;99.90;;;;;;5109824;27;20039;-69
2023/10/12 12:42:36;;;;;;;1999.90;999.90;;;14.60;99.90;;;;;;5104995;28;20055;-67
2023/10/12 12:45:03;;;;;;;1999.90;999.90;;;14.60;99.90;;;;;;5099756;28;20414;-85
2023/10/12 12:47:32;;;;;;;1999.90;999.90;;;14.60;99.90;;;;;;5098155;28;20048;-67
2023/10/12 12:50:01;;;;;;;1999.90;999.90;;;14.60;99.90;;;;;;5096553;28;20048;-67
2023/10/12 12:52:27;;;;;;;1999.90;999.90;;;14.60;99.90;;;;;;5096688;27;20327;-67
2023/10/12 12:54:53;;;;;;;1999.90;999.90;;;14.60;99.90;;;;;;5100029;28;20020;-67
2023/10/12 12:57:18;;;;;;;1999.90;999.90;;;14.50;99.90;;;;;;5107047;27;20039;-66
2023/10/12 12:59:44;;;;;;;1999.90;999.90;;;14.50;99.90;;;;;;5100067;28;20536;-66
2023/10/12 13:02:10;;;;;;;1999.90;999.90;;;14.50;99.90;;;;;;5108772;27;20406;-82
2023/10/12 13:04:35;;;;;;;1999.90;999.90;;;14.50;99.90;;;;;;5104188;28;20058;-66
2023/10/12 13:07:08;;;;;;;1999.90;999.90;;;14.50;99.90;;;;;;5112615;28;20052;-66
2023/10/12 13:09:36;;;;;;;1999.90;999.90;;;14.50;99.90;;;;;;5098044;28;20071;-66
2023/10/12 13:12:06;;;;;;;1999.90;999.90;;;14.50;99.90;;;;;;5091863;28;20422;-66
2023/10/12 13:14:32;;;;;;;1999.90;999.90;;;14.50;99.90;;;;;;5077924;28;20115;-66
2023/10/12 13:16:58;;;;;;;1999.90;999.90;;;14.50;99.90;;;;;;5103837;28;20036;-66
2023/10/12 13:19:24;;;;;;;1999.90;999.90;;;14.50;99.90;;;;;;5105277;28;20035;-67
2023/10/12 13:21:50;;;;;;;1999.90;999.90;;;14.40;99.90;;;;;;5105011;27;20281;-67
2023/10/12 13:24:16;;;;;;;1999.90;999.90;;;14.40;99.90;;;;;;5108115;27;20031;-67
2023/10/12 13:26:45;;;;;;;1999.90;999.90;;;14.50;99.90;;;;;;5112205;27;20088;-83
2023/10/12 13:29:13;;;;;;;1999.90;999.90;;;14.60;99.90;;;;;;5105690;27;20081;-67
2023/10/12 13:31:40;;;;;;;1999.90;999.90;;;14.60;99.90;;;;;;5096167;28;20115;-67
2023/10/12 13:34:05;;;;;;;1999.90;999.90;;;14.70;99.90;;;;;;5099017;27;20111;-67
2023/10/12 13:36:34;;;;;;;1999.90;999.90;;;14.70;99.90;;;;;;5106680;27;20168;-67
2023/10/12 13:39:00;;;;;;;1999.90;999.90;;;14.80;99.90;;;;;;5104712;27;20106;-67
2023/10/12 13:41:26;;;;;;;1999.90;999.90;;;14.90;99.90;;;;;;5104412;27;20099;-67
2023/10/12 13:43:52;;;;;;;1999.90;999.90;;;14.90;99.90;;;;;;5098527;27;20400;-78
2023/10/12 13:46:18;;;;;;;1999.90;999.90;;;14.90;99.90;;;;;;5109140;27;20205;-67
2023/10/12 13:48:47;;;;;;;1999.90;999.90;;;14.90;99.90;;;;;;5106887;27;20033;-67
2023/10/12 13:51:23;;;;;;;1999.90;999.90;;;14.90;99.90;;;;;;5099322;27;20074;-66
2023/10/12 13:53:53;;;;;;;1999.90;999.90;;;15.00;99.90;;;;;;5107953;27;20380;-67
2023/10/12 13:56:23;;;;;;;1999.90;999.90;;;15.00;99.90;;;;;;5112707;27;20028;-67
2023/10/12 13:58:52;;;;;;;1999.90;999.90;;;15.20;99.90;;;;;;5108116;27;20042;-67
2023/10/12 14:01:20;;;;;;;1999.90;999.90;;;15.30;99.90;;;;;;5105083;27;20470;-67
2023/10/12 14:03:53;;;;;;;1999.90;999.90;;;15.40;99.90;;;;;;5103984;27;20028;-67
2023/10/12 14:06:19;;;;;;;1999.90;999.90;;;15.50;99.90;;;;;;5114939;27;20356;-67
2023/10/12 14:08:46;;;;;;;1999.90;999.90;;;15.60;99.90;;;;;;5101160;27;20102;-67
2023/10/12 14:11:17;;;;;;;1999.90;999.90;;;15.70;99.90;;;;;;5102967;27;20107;-67
2023/10/12 14:13:44;;;;;;;1999.90;999.90;;;15.70;99.90;;;;;;5084591;28;20106;-88
2023/10/12 14:16:10;;;;;;;1999.90;999.90;;;15.70;99.90;;;;;;5103653;27;20039;-67
2023/10/12 14:18:36;;;;;;;;;;;15.70;99.90;;;;;;5108104;27;20023;-67
2023/10/12 14:21:02;;;;;;;1999.90;999.90;;;15.70;99.90;;;;;;5100787;27;19923;-67
2023/10/12 14:23:29;;;;;;;1999.90;999.90;;;15.70;99.90;;;;;;5085148;28;20028;-67
2023/10/12 14:25:57;;;;;;;1999.90;999.90;;;15.70;99.90;;;;;;5103791;28;20726;-67
2023/10/12 14:28:24;;;;;;;1999.90;999.90;;;15.70;99.90;;;;;;5113658;27;20024;-67
2023/10/12 14:30:50;;;;;;;1999.90;999.90;;;15.70;99.90;;;;;;5098208;27;20020;-67
2023/10/12 14:33:19;;;;;;;1999.90;999.90;;;15.70;99.90;;;;;;5097085;28;20035;-67
2023/10/12 14:35:46;;;;;;;1999.90;999.90;;;15.70;99.90;;;;;;5104017;28;20307;-67
2023/10/12 14:38:16;;;;;;;;;;;15.80;99.90;;;;;;5104436;28;20400;-67
2023/10/12 14:40:46;;;;;;;1999.90;999.90;;;15.80;99.90;;;;;;5090508;28;20301;-67
2023/10/12 14:43:14;;;;;;;1999.90;999.90;;;15.80;99.90;;;;;;5097239;28;20028;-67
2023/10/12 14:45:48;;;;;;;1999.90;999.90;;;15.70;99.90;;;;;;5106870;27;20023;-67
2023/10/12 14:48:16;;;;;;;1999.90;999.90;;;15.70;99.90;;;;;;5109368;28;20359;-67
2023/10/12 14:50:46;;;;;;;1999.90;999.90;;;15.70;99.90;;;;;;5108458;28;20059;-67
2023/10/12 14:53:15;;;;;;;1999.90;999.90;;;15.70;99.90;;;;;;5093118;28;20352;-67
2023/10/12 14:55:43;;;;;;;1999.90;999.90;;;15.70;99.90;;;;;;5074847;28;20484;-67
2023/10/12 14:58:09;;;;;;;1999.90;999.90;;;15.60;99.90;;;;;;5105219;28;20039;-67
2023/10/12 15:00:36;;;;;;;1999.90;999.90;;;15.70;99.90;;;;;;5106907;28;20039;-67
2023/10/12 15:03:02;;;;;;;;;;;15.70;99.90;;;;;;5110634;28;20035;-67
2023/10/12 15:05:30;;;;;;;1999.90;999.90;;;15.70;99.90;;;;;;5106985;28;19907;-67
2023/10/12 15:07:56;;;;;;;1999.90;999.90;;;15.70;99.90;;;;;;5106677;28;20031;-67
2023/10/12 15:10:22;;;;;;;1999.90;999.90;;;15.70;99.90;;;;;;5102355;28;20072;-85